Time;durP1;ratioP1;P1;durP2;ratioP2;P2;SDS_P1;SDS_P2;PMS_P1;PMS_P2;Temp;Humidity;BMP_temperature;BMP_pressure;BME280_temperature;BME280_humidity;BME280_pressure;Samples;Min_cycle;Max_cycle;Signal;HPM_P1;HPM_P2
2023/06/18 00:00:08;;;;;;;0.88;0.82;;;19.70;81.10;;;;;;5049432;28;20209;-70
2023/06/18 00:02:36;;;;;;;0.90;0.70;;;19.50;80.70;;;;;;5052527;28;20204;-69
2023/06/18 00:05:05;;;;;;;1.92;0.90;;;19.40;81.40;;;;;;5047296;28;20662;-69
2023/06/18 00:07:33;;;;;;;1.08;0.98;;;19.40;81.70;;;;;;5054142;28;20255;-69
2023/06/18 00:10:03;;;;;;;1.80;0.93;;;19.40;81.40;;;;;;5059937;28;20232;-69
2023/06/18 00:12:31;;;;;;;2.15;0.88;;;19.20;80.50;;;;;;5050233;28;20205;-68
2023/06/18 00:14:58;;;;;;;0.80;0.80;;;19.20;82.40;;;;;;5058084;28;20250;-70
2023/06/18 00:17:28;;;;;;;0.70;0.60;;;19.20;82.30;;;;;;5037942;28;20280;-69
2023/06/18 00:19:56;;;;;;;1.10;0.82;;;19.20;82.40;;;;;;5044418;28;20288;-70
2023/06/18 00:22:24;;;;;;;1.00;0.70;;;19.20;82.80;;;;;;5050643;28;20204;-69
2023/06/18 00:24:52;;;;;;;1.10;0.90;;;19.30;83.30;;;;;;5046749;28;20224;-69
2023/06/18 00:27:21;;;;;;;1.15;1.05;;;19.20;83.70;;;;;;5047517;28;20228;-70
2023/06/18 00:29:49;;;;;;;1.38;1.27;;;19.20;83.90;;;;;;5048663;28;20280;-69
2023/06/18 00:32:17;;;;;;;0.90;0.90;;;19.20;84.50;;;;;;5046536;28;20222;-70
2023/06/18 00:34:46;;;;;;;1.15;1.05;;;19.10;83.70;;;;;;5045059;28;20225;-69
2023/06/18 00:37:14;;;;;;;0.98;0.90;;;19.10;84.30;;;;;;5031116;28;20588;-70
2023/06/18 00:39:42;;;;;;;0.80;0.70;;;19.10;85.40;;;;;;5043921;28;20196;-70
2023/06/18 00:42:11;;;;;;;1.10;1.00;;;19.00;85.20;;;;;;5049174;28;20223;-70
2023/06/18 00:44:40;;;;;;;0.85;0.85;;;18.90;85.90;;;;;;5049519;28;20231;-70
2023/06/18 00:47:11;;;;;;;1.98;0.90;;;18.80;86.30;;;;;;5047312;28;20267;-70
2023/06/18 00:49:41;;;;;;;1.98;1.08;;;18.70;86.60;;;;;;5044965;28;20308;-70
2023/06/18 00:52:13;;;;;;;0.82;0.82;;;18.80;86.50;;;;;;5043703;28;20220;-70
2023/06/18 00:54:44;;;;;;;2.38;2.17;;;18.70;86.30;;;;;;5047560;28;20962;-70
2023/06/18 00:57:14;;;;;;;2.25;0.88;;;18.70;86.90;;;;;;5039922;28;20220;-70
2023/06/18 00:59:44;;;;;;;0.90;0.80;;;18.70;87.20;;;;;;5050845;28;20196;-69
2023/06/18 01:02:13;;;;;;;5.07;1.40;;;18.60;87.70;;;;;;5042094;28;20319;-68
2023/06/18 01:04:43;;;;;;;0.90;0.80;;;18.60;88.00;;;;;;5028641;28;20248;-69
2023/06/18 01:07:13;;;;;;;1.10;0.93;;;18.50;87.90;;;;;;5055013;28;20297;-69
2023/06/18 01:09:53;;;;;;;1.05;0.90;;;18.50;87.50;;;;;;5047374;28;20806;-69
2023/06/18 01:12:22;;;;;;;1.00;0.80;;;18.40;87.70;;;;;;5046227;28;20212;-68
2023/06/18 01:14:51;;;;;;;0.70;0.60;;;18.40;87.60;;;;;;5037590;28;20233;-69
2023/06/18 01:17:20;;;;;;;1.23;1.13;;;18.40;86.80;;;;;;5048734;28;20209;-71
2023/06/18 01:19:55;;;;;;;0.88;0.80;;;18.30;86.80;;;;;;5044537;28;20203;-72
2023/06/18 01:22:30;;;;;;;0.77;0.63;;;18.20;87.10;;;;;;5040179;28;20262;-70
2023/06/18 01:25:02;;;;;;;1.17;0.70;;;18.20;87.90;;;;;;5052926;28;20230;-69
2023/06/18 01:27:33;;;;;;;1.23;1.05;;;18.30;87.60;;;;;;5050744;28;20546;-69
2023/06/18 01:30:03;;;;;;;1.02;0.93;;;18.10;87.90;;;;;;5051450;28;20228;-70
2023/06/18 01:32:31;;;;;;;1.38;0.70;;;18.10;87.80;;;;;;5044914;28;20293;-69
2023/06/18 01:35:00;;;;;;;1.00;0.73;;;18.10;88.60;;;;;;5049603;28;20242;-69
2023/06/18 01:38:01;;;;;;;0.68;0.65;;;18.00;89.20;;;;;;5048881;28;20196;-69
2023/06/18 01:40:39;;;;;;;1.25;1.10;;;18.00;89.30;;;;;;5046514;28;20690;-69
2023/06/18 01:43:12;;;;;;;1.65;0.80;;;18.10;90.30;;;;;;5064513;28;20195;-72
2023/06/18 01:45:46;;;;;;;3.63;1.42;;;18.00;90.00;;;;;;5056510;28;20590;-71
2023/06/18 01:48:15;;;;;;;1.48;1.20;;;18.00;90.30;;;;;;5046542;28;20219;-72
2023/06/18 01:50:47;;;;;;;1.80;0.90;;;17.90;91.00;;;;;;5055868;28;20311;-71
2023/06/18 01:53:18;;;;;;;1.10;1.00;;;17.90;91.30;;;;;;5053801;28;20210;-71
2023/06/18 01:55:49;;;;;;;0.80;0.80;;;17.90;91.70;;;;;;5052371;28;20595;-71
2023/06/18 01:58:17;;;;;;;1.13;1.02;;;17.80;91.50;;;;;;5060168;28;20212;-71
2023/06/18 02:00:45;;;;;;;1.52;1.02;;;17.80;92.00;;;;;;5044318;28;20671;-70
2023/06/18 02:03:13;;;;;;;1.75;1.65;;;17.70;92.50;;;;;;5052478;28;20257;-69
2023/06/18 02:05:41;;;;;;;1.27;0.98;;;17.60;92.70;;;;;;5068686;28;20224;-70
2023/06/18 02:08:09;;;;;;;1.30;1.10;;;17.60;93.00;;;;;;5065962;28;20590;-70
2023/06/18 02:10:38;;;;;;;0.85;0.85;;;17.50;93.40;;;;;;5068931;28;20231;-70
2023/06/18 02:13:06;;;;;;;1.17;1.08;;;17.50;93.70;;;;;;5062629;28;20222;-72
2023/06/18 02:15:34;;;;;;;0.70;0.52;;;17.50;94.10;;;;;;5052588;28;20239;-71
2023/06/18 02:18:02;;;;;;;1.27;0.85;;;17.40;94.00;;;;;;5057282;28;20204;-71
2023/06/18 02:20:30;;;;;;;2.92;1.20;;;17.30;94.50;;;;;;5068272;28;20669;-70
2023/06/18 02:22:59;;;;;;;1.15;1.02;;;17.30;94.90;;;;;;5067087;28;20744;-69
2023/06/18 02:25:29;;;;;;;0.80;0.80;;;17.30;94.90;;;;;;5067433;28;20231;-69
2023/06/18 02:27:59;;;;;;;1.25;1.15;;;17.30;95.70;;;;;;5069908;28;20203;-69
2023/06/18 02:30:29;;;;;;;1.52;1.00;;;17.30;95.70;;;;;;5060714;28;20395;-69
2023/06/18 02:32:58;;;;;;;1.58;1.40;;;17.20;95.70;;;;;;5071198;28;20207;-69
2023/06/18 02:35:26;;;;;;;1.48;1.38;;;17.20;96.20;;;;;;5060353;28;20231;-69
2023/06/18 02:37:55;;;;;;;1.27;0.95;;;17.10;96.40;;;;;;5071263;28;20203;-69
2023/06/18 02:40:23;;;;;;;3.38;1.20;;;17.20;96.70;;;;;;5062773;28;20209;-70
2023/06/18 02:42:52;;;;;;;1.00;0.90;;;17.10;97.50;;;;;;5060619;28;20200;-70
2023/06/18 02:45:23;;;;;;;1.00;0.90;;;17.20;97.60;;;;;;5066047;28;20266;-70
2023/06/18 02:47:51;;;;;;;2.15;1.65;;;17.20;97.80;;;;;;5064425;28;20278;-69
2023/06/18 02:50:19;;;;;;;1.25;0.90;;;17.20;98.20;;;;;;5056202;28;20717;-69
2023/06/18 02:52:48;;;;;;;1.27;1.17;;;17.20;98.40;;;;;;5049525;28;20287;-69
2023/06/18 02:55:16;;;;;;;1.55;1.42;;;17.10;98.80;;;;;;5046431;28;20718;-70
2023/06/18 02:57:45;;;;;;;1.70;1.60;;;17.10;98.80;;;;;;5049672;28;20208;-69
2023/06/18 03:00:14;;;;;;;1.35;1.25;;;17.00;99.00;;;;;;5047635;28;20238;-69
2023/06/18 03:02:44;;;;;;;1.50;1.08;;;17.10;99.50;;;;;;5050408;28;20199;-69
2023/06/18 03:05:12;;;;;;;1.10;0.95;;;17.00;99.80;;;;;;5049862;28;20227;-69
2023/06/18 03:07:40;;;;;;;1.10;1.00;;;17.00;99.90;;;;;;5045750;28;20341;-69
2023/06/18 03:10:09;;;;;;;1.08;0.98;;;17.00;99.90;;;;;;5049096;28;20230;-69
2023/06/18 03:12:37;;;;;;;2.30;1.55;;;17.00;99.90;;;;;;5051720;28;20661;-69
2023/06/18 03:15:06;;;;;;;1.45;1.20;;;16.90;99.90;;;;;;5043355;28;20355;-69
2023/06/18 03:17:34;;;;;;;1.40;1.20;;;16.90;99.90;;;;;;5047857;28;20208;-69
2023/06/18 03:20:06;;;;;;;1.48;1.20;;;16.90;99.90;;;;;;5048090;28;20283;-69
2023/06/18 03:22:34;;;;;;;3.13;1.30;;;16.90;99.90;;;;;;5047452;28;20253;-68
2023/06/18 03:25:02;;;;;;;1.73;1.63;;;16.80;99.90;;;;;;5050139;28;20638;-69
2023/06/18 03:27:31;;;;;;;1.45;1.13;;;16.90;99.90;;;;;;5053574;28;20227;-69
2023/06/18 03:29:59;;;;;;;1.80;1.45;;;16.90;99.90;;;;;;5046540;28;20235;-68
2023/06/18 03:32:27;;;;;;;1.63;1.52;;;16.90;99.90;;;;;;5049537;28;20212;-68
2023/06/18 03:34:54;;;;;;;1.95;1.60;;;16.90;99.90;;;;;;5048838;28;20220;-69
2023/06/18 03:37:24;;;;;;;2.08;1.73;;;16.80;99.90;;;;;;5048730;28;20670;-69
2023/06/18 03:39:52;;;;;;;1.35;1.08;;;16.90;99.90;;;;;;5049049;28;20692;-68
2023/06/18 03:42:20;;;;;;;1.20;1.10;;;16.90;99.90;;;;;;5049344;28;20215;-68
2023/06/18 03:44:48;;;;;;;1.30;1.20;;;17.00;99.90;;;;;;5051723;28;20224;-69
2023/06/18 03:47:16;;;;;;;1.75;1.65;;;17.00;99.90;;;;;;5069114;28;20207;-68
2023/06/18 03:49:44;;;;;;;2.00;1.83;;;17.00;99.90;;;;;;5055587;28;20211;-69
2023/06/18 03:52:11;;;;;;;2.47;1.50;;;17.00;99.90;;;;;;5054712;28;20266;-68
2023/06/18 03:54:41;;;;;;;1.45;1.35;;;17.00;99.90;;;;;;5042739;28;20228;-68
2023/06/18 03:57:09;;;;;;;1.88;1.60;;;17.10;99.90;;;;;;5049139;28;20212;-68
2023/06/18 03:59:37;;;;;;;1.25;1.15;;;17.10;99.90;;;;;;5048442;28;20211;-68
2023/06/18 04:02:06;;;;;;;2.88;1.35;;;17.10;99.90;;;;;;5041830;28;20211;-68
2023/06/18 04:04:34;;;;;;;1.67;1.55;;;17.00;99.90;;;;;;5046711;28;20828;-68
2023/06/18 04:07:02;;;;;;;1.40;1.30;;;17.10;99.90;;;;;;5044123;28;20204;-69
2023/06/18 04:09:30;;;;;;;1.88;1.30;;;17.10;99.90;;;;;;5049011;28;20211;-68
2023/06/18 04:12:00;;;;;;;1.33;1.23;;;17.20;99.90;;;;;;5047204;28;20224;-68
2023/06/18 04:14:28;;;;;;;1.67;1.25;;;17.10;99.90;;;;;;5047314;28;20196;-68
2023/06/18 04:16:56;;;;;;;2.63;1.67;;;17.20;99.90;;;;;;5047883;28;20273;-68
2023/06/18 04:19:23;;;;;;;1.80;1.60;;;17.20;99.90;;;;;;5046086;28;20208;-68
2023/06/18 04:21:51;;;;;;;1.75;1.50;;;17.10;99.90;;;;;;5040893;28;20250;-69
2023/06/18 04:24:19;;;;;;;2.20;1.58;;;17.20;99.90;;;;;;5047309;28;20208;-70
2023/06/18 04:26:47;;;;;;;1.23;1.13;;;17.20;99.90;;;;;;5049316;28;20267;-70
2023/06/18 04:29:17;;;;;;;3.75;1.63;;;17.20;99.90;;;;;;5044732;28;20223;-71
2023/06/18 04:31:46;;;;;;;1.48;1.35;;;17.30;99.90;;;;;;5047459;28;20230;-69
2023/06/18 04:34:14;;;;;;;1.50;1.40;;;17.30;99.90;;;;;;5044949;28;20210;-69
2023/06/18 04:36:42;;;;;;;1.20;1.00;;;17.30;99.90;;;;;;5047537;28;20208;-70
2023/06/18 04:39:10;;;;;;;0.93;0.80;;;17.40;99.90;;;;;;5049525;28;20290;-68
2023/06/18 04:41:38;;;;;;;1.27;1.15;;;17.50;99.90;;;;;;5049075;28;20327;-69
2023/06/18 04:44:06;;;;;;;1.30;1.20;;;17.60;99.90;;;;;;5049649;28;20582;-68
2023/06/18 04:46:35;;;;;;;1.55;1.10;;;17.70;99.90;;;;;;5044211;28;20639;-69
2023/06/18 04:49:03;;;;;;;1.42;1.30;;;17.80;99.90;;;;;;5046858;28;20210;-69
2023/06/18 04:51:31;;;;;;;1.17;0.90;;;17.90;99.90;;;;;;5045715;28;20219;-69
2023/06/18 04:53:59;;;;;;;1.10;1.00;;;18.00;99.90;;;;;;5045116;28;20195;-69
2023/06/18 04:56:28;;;;;;;2.75;1.58;;;18.10;99.90;;;;;;5030324;28;20224;-69
2023/06/18 04:58:56;;;;;;;1.40;1.30;;;18.10;99.90;;;;;;5049188;28;20205;-69
2023/06/18 05:01:24;;;;;;;1.13;1.02;;;18.20;99.90;;;;;;5049294;28;20679;-69
2023/06/18 05:03:53;;;;;;;1.23;0.85;;;18.20;99.90;;;;;;5045255;28;20295;-69
2023/06/18 05:06:21;;;;;;;1.42;1.33;;;18.20;99.90;;;;;;5046482;28;21828;-69
2023/06/18 05:08:50;;;;;;;1.17;1.05;;;18.40;99.90;;;;;;5046513;28;20615;-69
2023/06/18 05:11:18;;;;;;;1.27;1.17;;;18.40;99.90;;;;;;5049553;28;20231;-70
2023/06/18 05:13:46;;;;;;;2.10;1.40;;;18.50;99.90;;;;;;5061597;28;20207;-70
2023/06/18 05:16:14;;;;;;;1.50;1.40;;;18.50;99.90;;;;;;5101981;22;20246;-64
2023/06/18 05:18:42;;;;;;;0.95;0.80;;;18.70;99.90;;;;;;5082704;28;20208;-65
2023/06/18 05:21:11;;;;;;;1.52;1.23;;;18.70;99.90;;;;;;5088157;28;20207;-65
2023/06/18 05:23:39;;;;;;;1.33;1.00;;;18.80;99.90;;;;;;5089542;28;20606;-65
2023/06/18 05:26:07;;;;;;;1.30;1.02;;;18.80;99.90;;;;;;5074581;28;20234;-67
2023/06/18 05:28:35;;;;;;;0.93;0.93;;;18.80;99.90;;;;;;5069006;28;20241;-65
2023/06/18 05:31:03;;;;;;;1.13;0.80;;;18.80;99.90;;;;;;5049113;28;20302;-65
2023/06/18 05:33:31;;;;;;;1.35;1.25;;;18.80;99.90;;;;;;5047332;28;20212;-66
2023/06/18 05:35:59;;;;;;;1.50;1.40;;;18.80;99.90;;;;;;5045767;28;20228;-65
2023/06/18 05:38:28;;;;;;;1.30;1.20;;;18.90;99.90;;;;;;5046843;28;20219;-65
2023/06/18 05:40:57;;;;;;;1.60;1.50;;;18.90;99.90;;;;;;5050567;28;20944;-67
2023/06/18 05:43:24;;;;;;;1.15;0.90;;;19.00;99.90;;;;;;5050183;28;20217;-65
2023/06/18 05:45:52;;;;;;;1.10;1.00;;;19.00;99.90;;;;;;5048849;28;20237;-65
2023/06/18 05:48:20;;;;;;;1.17;1.08;;;19.10;99.90;;;;;;5043179;28;20207;-65
2023/06/18 05:50:48;;;;;;;2.30;1.02;;;19.10;99.90;;;;;;5048609;28;20204;-67
2023/06/18 05:53:17;;;;;;;1.63;1.38;;;19.20;99.90;;;;;;5045519;28;20295;-65
2023/06/18 05:55:46;;;;;;;1.52;1.27;;;19.20;99.90;;;;;;5051906;28;20223;-65
2023/06/18 05:58:14;;;;;;;2.15;1.70;;;19.30;99.90;;;;;;5045851;28;20211;-64
2023/06/18 06:00:42;;;;;;;1.40;1.33;;;19.50;99.90;;;;;;5044821;28;20279;-65
2023/06/18 06:03:10;;;;;;;0.80;0.80;;;19.60;99.90;;;;;;5047626;28;21226;-66
2023/06/18 06:05:38;;;;;;;1.88;1.23;;;19.70;99.90;;;;;;5048910;28;20237;-65
2023/06/18 06:08:07;;;;;;;1.90;1.17;;;19.80;99.90;;;;;;5045414;28;20573;-65
2023/06/18 06:10:36;;;;;;;1.15;0.98;;;20.00;99.90;;;;;;5045047;28;20218;-65
2023/06/18 06:13:05;;;;;;;0.90;0.90;;;20.00;99.90;;;;;;5045474;28;20232;-65
2023/06/18 06:15:33;;;;;;;1.35;1.10;;;20.10;99.90;;;;;;5045874;28;20253;-65
2023/06/18 06:18:02;;;;;;;0.80;0.80;;;20.20;99.90;;;;;;5045984;28;20272;-65
2023/06/18 06:20:30;;;;;;;1.10;1.00;;;20.30;99.90;;;;;;5050408;28;21725;-65
2023/06/18 06:22:58;;;;;;;2.17;1.80;;;20.30;99.90;;;;;;5047756;28;20219;-64
2023/06/18 06:25:26;;;;;;;1.13;1.02;;;20.30;99.90;;;;;;5049586;28;20236;-65
2023/06/18 06:27:54;;;;;;;1.42;1.33;;;20.40;99.90;;;;;;5057334;28;20212;-65
2023/06/18 06:30:24;;;;;;;1.60;1.00;;;20.40;99.90;;;;;;5053957;28;20212;-65
2023/06/18 06:32:52;;;;;;;0.70;0.70;;;20.50;99.90;;;;;;5052319;28;21211;-65
2023/06/18 06:35:21;;;;;;;1.00;0.80;;;20.50;99.90;;;;;;5048177;28;20818;-65
2023/06/18 06:37:49;;;;;;;1.60;1.48;;;20.60;99.90;;;;;;5050366;28;20215;-65
2023/06/18 06:40:16;;;;;;;1.48;1.20;;;20.70;99.90;;;;;;5051348;28;20220;-64
2023/06/18 06:42:44;;;;;;;1.63;0.90;;;20.90;99.90;;;;;;5051947;28;20213;-65
2023/06/18 06:45:12;;;;;;;1.77;1.30;;;20.90;99.90;;;;;;5053864;28;20236;-63
2023/06/18 06:47:41;;;;;;;1.10;1.00;;;20.90;99.90;;;;;;5053964;28;20577;-65
2023/06/18 06:50:10;;;;;;;0.98;0.98;;;20.90;99.90;;;;;;5050672;28;20202;-65
2023/06/18 06:52:38;;;;;;;1.08;1.00;;;21.00;99.90;;;;;;5051403;28;20224;-65
2023/06/18 06:55:06;;;;;;;1.05;1.00;;;21.20;99.90;;;;;;5052494;28;20236;-65
2023/06/18 06:57:34;;;;;;;1.50;0.85;;;21.30;99.90;;;;;;5049525;28;20212;-65
2023/06/18 07:00:03;;;;;;;1.00;0.82;;;21.30;99.90;;;;;;5051860;28;20213;-65
2023/06/18 07:02:33;;;;;;;1.35;1.25;;;21.40;99.90;;;;;;5054888;28;20238;-66
2023/06/18 07:05:04;;;;;;;0.80;0.80;;;21.50;99.90;;;;;;5053288;28;20228;-65
2023/06/18 07:07:35;;;;;;;1.38;1.27;;;21.70;99.90;;;;;;5048116;28;20217;-65
2023/06/18 07:10:04;;;;;;;0.90;0.77;;;21.80;99.90;;;;;;5052449;28;20213;-65
2023/06/18 07:12:32;;;;;;;1.50;0.98;;;22.00;99.90;;;;;;5049681;28;20618;-65
2023/06/18 07:15:00;;;;;;;1.13;0.90;;;22.00;99.90;;;;;;5050968;28;20233;-65
2023/06/18 07:17:30;;;;;;;1.05;0.95;;;22.20;99.90;;;;;;5040041;28;20644;-65
2023/06/18 07:19:58;;;;;;;0.85;0.85;;;22.40;99.90;;;;;;5039254;28;20341;-65
2023/06/18 07:22:30;;;;;;;2.35;1.17;;;22.30;99.90;;;;;;5040307;28;20237;-65
2023/06/18 07:24:58;;;;;;;1.20;1.10;;;22.40;99.90;;;;;;5040794;28;20225;-66
2023/06/18 07:27:26;;;;;;;1.08;1.02;;;22.30;99.90;;;;;;5039154;28;20805;-64
2023/06/18 07:29:54;;;;;;;0.95;0.85;;;22.50;99.90;;;;;;5040144;28;20795;-66
2023/06/18 07:32:22;;;;;;;1.05;0.98;;;22.60;99.90;;;;;;5039601;28;20642;-65
2023/06/18 07:34:50;;;;;;;1.02;0.77;;;22.80;99.90;;;;;;5039708;28;20656;-65
2023/06/18 07:37:18;;;;;;;0.90;0.90;;;22.90;99.90;;;;;;5038772;28;20210;-65
2023/06/18 07:39:47;;;;;;;0.80;0.80;;;23.10;99.40;;;;;;5039222;28;20584;-65
2023/06/18 07:42:15;;;;;;;1.17;0.80;;;23.20;99.60;;;;;;5039898;28;20202;-66
2023/06/18 07:44:43;;;;;;;2.65;0.80;;;23.40;99.90;;;;;;5038335;28;20218;-65
2023/06/18 07:47:11;;;;;;;1.63;1.52;;;23.50;99.70;;;;;;5037402;28;20218;-66
2023/06/18 07:49:39;;;;;;;1.58;1.48;;;23.60;98.50;;;;;;5039614;28;20574;-65
2023/06/18 07:52:07;;;;;;;1.00;0.85;;;23.50;97.30;;;;;;5039332;28;20631;-65
2023/06/18 07:54:36;;;;;;;1.08;0.90;;;23.50;97.70;;;;;;5039798;28;20691;-65
2023/06/18 07:57:05;;;;;;;0.80;0.80;;;23.60;97.50;;;;;;5036877;28;20296;-65
2023/06/18 07:59:33;;;;;;;1.10;1.00;;;23.70;97.50;;;;;;5037581;28;20699;-65
2023/06/18 08:02:01;;;;;;;1.50;1.40;;;24.00;97.80;;;;;;5038029;28;20208;-66
2023/06/18 08:04:29;;;;;;;0.80;0.70;;;24.30;96.70;;;;;;5040008;28;21236;-65
2023/06/18 08:06:58;;;;;;;1.20;1.10;;;24.60;96.10;;;;;;5037560;28;20251;-67
2023/06/18 08:09:26;;;;;;;2.35;1.67;;;24.70;95.60;;;;;;5040139;28;20293;-65
2023/06/18 08:11:55;;;;;;;1.10;1.00;;;24.90;96.90;;;;;;5038626;28;20207;-66
2023/06/18 08:14:28;;;;;;;0.95;0.90;;;25.00;96.00;;;;;;5039435;28;20226;-66
2023/06/18 08:16:56;;;;;;;1.00;0.90;;;25.20;94.80;;;;;;5048318;28;20245;-67
2023/06/18 08:19:24;;;;;;;0.80;0.70;;;25.20;94.80;;;;;;5049470;28;20781;-66
2023/06/18 08:21:53;;;;;;;1.13;1.02;;;25.40;95.30;;;;;;5050545;28;20199;-65
2023/06/18 08:24:21;;;;;;;0.80;0.80;;;25.50;94.50;;;;;;5046742;28;20207;-66
2023/06/18 08:26:49;;;;;;;1.13;0.90;;;25.50;94.40;;;;;;5051034;28;20338;-66
2023/06/18 08:29:17;;;;;;;0.90;0.77;;;25.50;93.80;;;;;;5046538;28;20679;-66
2023/06/18 08:31:46;;;;;;;0.90;0.90;;;25.70;93.90;;;;;;5048090;28;20669;-66
2023/06/18 08:34:14;;;;;;;0.70;0.65;;;25.90;94.70;;;;;;5047169;28;20218;-65
2023/06/18 08:36:46;;;;;;;1.80;1.00;;;26.00;93.70;;;;;;5048243;28;20238;-66
2023/06/18 08:39:14;;;;;;;1.10;1.00;;;26.30;94.70;;;;;;5052492;28;20216;-66
2023/06/18 08:41:45;;;;;;;1.10;0.98;;;26.40;93.20;;;;;;5052409;28;20285;-65
2023/06/18 08:44:14;;;;;;;1.17;1.05;;;26.70;94.10;;;;;;5045397;28;20278;-66
2023/06/18 08:46:43;;;;;;;0.90;0.73;;;27.00;92.80;;;;;;5045038;28;20231;-66
2023/06/18 08:49:16;;;;;;;1.45;1.35;;;27.20;93.30;;;;;;5049285;28;20858;-66
2023/06/18 08:51:45;;;;;;;1.40;0.80;;;27.30;92.40;;;;;;5049840;28;20631;-66
2023/06/18 08:54:15;;;;;;;0.80;0.60;;;27.50;92.20;;;;;;5045426;28;20224;-66
2023/06/18 08:56:45;;;;;;;0.70;0.60;;;27.50;91.20;;;;;;5044927;28;20234;-66
2023/06/18 08:59:13;;;;;;;1.42;1.30;;;27.60;91.30;;;;;;5048971;28;20269;-65
2023/06/18 09:01:43;;;;;;;1.02;0.90;;;27.60;90.10;;;;;;5050050;28;20608;-66
2023/06/18 09:04:13;;;;;;;1.63;1.38;;;27.80;90.00;;;;;;5050657;28;20207;-66
2023/06/18 09:06:42;;;;;;;0.70;0.70;;;27.80;88.80;;;;;;5049520;28;20666;-66
2023/06/18 09:09:10;;;;;;;1.45;0.98;;;28.00;88.30;;;;;;5047869;28;20687;-66
2023/06/18 09:11:38;;;;;;;0.93;0.93;;;28.10;88.90;;;;;;5049996;28;20260;-66
2023/06/18 09:14:07;;;;;;;1.33;1.23;;;28.00;86.80;;;;;;5053680;28;20231;-66
2023/06/18 09:16:35;;;;;;;1.33;1.23;;;28.20;89.00;;;;;;5044347;28;20320;-65
2023/06/18 09:19:04;;;;;;;0.70;0.60;;;28.40;88.30;;;;;;5052072;28;21002;-66
2023/06/18 09:21:38;;;;;;;1.10;1.00;;;28.50;88.20;;;;;;5048339;28;20881;-65
2023/06/18 09:24:08;;;;;;;1.42;1.33;;;28.70;86.10;;;;;;5047785;28;20214;-65
2023/06/18 09:26:37;;;;;;;1.00;0.90;;;28.80;85.50;;;;;;5045154;28;20239;-65
2023/06/18 09:29:05;;;;;;;1.40;0.95;;;29.10;87.50;;;;;;5052508;28;20696;-65
2023/06/18 09:31:34;;;;;;;1.07;0.83;;;29.30;87.10;;;;;;5049096;28;20204;-65
2023/06/18 09:34:13;;;;;;;0.90;0.90;;;29.50;83.50;;;;;;5049306;28;20659;-65
2023/06/18 09:36:44;;;;;;;0.83;0.77;;;29.70;86.50;;;;;;5049671;28;21315;-65
2023/06/18 09:39:16;;;;;;;1.23;1.13;;;29.70;84.10;;;;;;5045861;28;20634;-65
2023/06/18 09:41:45;;;;;;;1.40;1.30;;;29.90;85.50;;;;;;5049924;28;20642;-66
2023/06/18 09:44:14;;;;;;;0.80;0.80;;;30.10;82.40;;;;;;5049935;28;20641;-65
2023/06/18 09:46:44;;;;;;;1.57;1.47;;;30.30;82.90;;;;;;5044517;28;21472;-65
2023/06/18 09:49:14;;;;;;;0.83;0.77;;;30.60;84.00;;;;;;5049262;28;20647;-65
2023/06/18 09:51:43;;;;;;;0.90;0.80;;;30.80;82.10;;;;;;5048575;28;20640;-65
2023/06/18 09:54:11;;;;;;;0.90;0.90;;;30.80;81.60;;;;;;5052950;28;20671;-65
2023/06/18 09:56:39;;;;;;;1.10;1.00;;;30.90;79.50;;;;;;5047564;28;21097;-65
2023/06/18 09:59:19;;;;;;;0.70;0.70;;;31.00;78.50;;;;;;5044849;28;20663;-66
2023/06/18 10:01:48;;;;;;;1.17;1.07;;;31.30;78.00;;;;;;5043993;28;20645;-66
2023/06/18 10:04:17;;;;;;;1.23;1.13;;;31.50;79.90;;;;;;5046810;28;20645;-66
2023/06/18 10:06:51;;;;;;;0.70;0.70;;;31.30;78.70;;;;;;5043458;28;20669;-65
2023/06/18 10:09:20;;;;;;;1.80;1.23;;;31.50;76.90;;;;;;5046250;28;20640;-65
2023/06/18 10:11:50;;;;;;;0.80;0.70;;;31.80;75.30;;;;;;5044020;28;20652;-65
2023/06/18 10:14:22;;;;;;;1.20;1.10;;;32.10;75.40;;;;;;5044893;28;20676;-65
2023/06/18 10:16:53;;;;;;;1.10;0.90;;;32.40;76.60;;;;;;5052001;28;20677;-66
2023/06/18 10:19:26;;;;;;;2.00;1.33;;;32.50;72.30;;;;;;5051980;28;20672;-65
2023/06/18 10:21:59;;;;;;;2.17;0.90;;;32.60;73.00;;;;;;5047105;28;20648;-66
2023/06/18 10:24:32;;;;;;;1.20;1.10;;;32.60;71.10;;;;;;5053160;28;20622;-66
2023/06/18 10:27:01;;;;;;;1.40;1.30;;;32.50;70.80;;;;;;5047916;28;21272;-66
2023/06/18 10:29:29;;;;;;;1.20;1.10;;;32.40;73.20;;;;;;5049788;28;20640;-66
2023/06/18 10:31:58;;;;;;;1.10;1.00;;;32.60;73.90;;;;;;5041964;28;20656;-66
2023/06/18 10:34:27;;;;;;;2.07;1.53;;;33.00;69.80;;;;;;5047312;28;20660;-66
2023/06/18 10:36:58;;;;;;;1.33;1.23;;;33.30;69.40;;;;;;5049152;28;20656;-66
2023/06/18 10:39:27;;;;;;;1.20;1.10;;;33.90;71.00;;;;;;5048805;28;20625;-66
2023/06/18 10:42:01;;;;;;;1.60;1.10;;;33.80;69.50;;;;;;5047741;28;20689;-66
2023/06/18 10:44:50;;;;;;;1.40;1.30;;;33.80;68.10;;;;;;5049502;28;21187;-66
2023/06/18 10:47:19;;;;;;;1.17;1.07;;;33.70;69.50;;;;;;5044343;28;20630;-66
2023/06/18 10:50:11;;;;;;;1.33;1.07;;;33.70;70.70;;;;;;5044351;28;20744;-66
2023/06/18 10:52:41;;;;;;;1.23;1.10;;;33.80;71.70;;;;;;5050253;28;20632;-66
2023/06/18 10:55:11;;;;;;;2.93;1.17;;;33.80;69.10;;;;;;5047765;28;20676;-66
2023/06/18 10:57:41;;;;;;;0.90;0.90;;;34.00;67.30;;;;;;5044385;28;20629;-66
2023/06/18 11:00:18;;;;;;;1.07;0.97;;;34.40;68.80;;;;;;5043648;28;20637;-65
2023/06/18 11:02:49;;;;;;;1.20;1.03;;;34.10;66.90;;;;;;5048261;28;20629;-65
2023/06/18 11:05:41;;;;;;;1.47;1.37;;;33.80;63.20;;;;;;5045195;28;20658;-66
2023/06/18 11:08:13;;;;;;;0.80;0.80;;;33.80;63.00;;;;;;5047969;28;20636;-66
2023/06/18 11:10:42;;;;;;;0.90;0.90;;;34.30;66.70;;;;;;5052095;28;20617;-66
2023/06/18 11:13:11;;;;;;;1.13;1.03;;;34.50;63.70;;;;;;5048795;28;20751;-66
2023/06/18 11:15:53;;;;;;;1.23;1.00;;;34.30;65.50;;;;;;5071897;22;20677;-70
2023/06/18 11:18:22;;;;;;;0.90;0.90;;;34.00;62.60;;;;;;5058090;28;20664;-70
2023/06/18 11:20:50;;;;;;;1.07;0.93;;;33.60;63.00;;;;;;5059940;28;20624;-71
2023/06/18 11:23:20;;;;;;;1.00;0.83;;;34.00;63.60;;;;;;5060829;28;20632;-70
2023/06/18 11:25:48;;;;;;;1.50;1.40;;;34.50;64.70;;;;;;5057167;28;20638;-70
2023/06/18 11:28:17;;;;;;;1.00;1.00;;;34.80;62.20;;;;;;5047905;28;20634;-70
2023/06/18 11:30:48;;;;;;;1.47;1.37;;;35.30;61.60;;;;;;5050421;28;20676;-71
2023/06/18 11:33:22;;;;;;;1.30;1.20;;;35.50;59.80;;;;;;5050947;28;20661;-70
2023/06/18 11:35:50;;;;;;;1.10;1.00;;;35.20;57.30;;;;;;5045356;28;20764;-70
2023/06/18 11:38:21;;;;;;;0.90;0.90;;;35.20;58.90;;;;;;5047144;28;21266;-71
2023/06/18 11:40:51;;;;;;;1.30;1.20;;;35.30;56.90;;;;;;5048462;28;20648;-70
2023/06/18 11:43:20;;;;;;;1.00;0.90;;;35.00;57.30;;;;;;5050585;28;20659;-70
2023/06/18 11:45:48;;;;;;;1.63;1.53;;;35.00;55.60;;;;;;5047660;28;20674;-70
2023/06/18 11:48:17;;;;;;;1.67;1.20;;;35.40;56.30;;;;;;5046513;28;21120;-70
2023/06/18 11:50:47;;;;;;;1.60;1.20;;;35.40;57.20;;;;;;5048958;28;20637;-70
2023/06/18 11:53:15;;;;;;;1.93;1.00;;;35.20;55.10;;;;;;5051818;28;20651;-70
2023/06/18 11:55:48;;;;;;;0.70;0.70;;;35.20;56.80;;;;;;5048618;28;20662;-71
2023/06/18 11:58:16;;;;;;;1.20;1.10;;;35.20;56.90;;;;;;5050987;28;20647;-71
2023/06/18 12:00:44;;;;;;;1.47;1.23;;;35.40;57.20;;;;;;5047877;28;20695;-71
2023/06/18 12:03:13;;;;;;;1.00;0.90;;;35.40;55.60;;;;;;5046445;28;20638;-71
2023/06/18 12:05:41;;;;;;;1.50;1.13;;;35.50;56.80;;;;;;5046569;28;20657;-72
2023/06/18 12:08:11;;;;;;;1.20;1.13;;;36.20;58.30;;;;;;5047187;28;20638;-71
2023/06/18 12:10:39;;;;;;;1.00;0.83;;;36.10;56.10;;;;;;5056686;28;20625;-71
2023/06/18 12:13:19;;;;;;;1.17;1.07;;;36.10;56.50;;;;;;5045527;28;20654;-71
2023/06/18 12:15:55;;;;;;;1.10;0.80;;;36.30;55.70;;;;;;5049556;28;20696;-70
2023/06/18 12:18:27;;;;;;;0.90;0.90;;;36.10;55.20;;;;;;5046448;28;20640;-69
2023/06/18 12:20:57;;;;;;;1.10;0.93;;;36.10;55.80;;;;;;5047356;28;20680;-70
2023/06/18 12:23:26;;;;;;;1.13;1.03;;;36.20;55.10;;;;;;5051700;28;20678;-69
2023/06/18 12:25:54;;;;;;;1.20;1.10;;;36.20;56.80;;;;;;5048232;28;20657;-69
2023/06/18 12:28:25;;;;;;;0.80;0.80;;;36.50;57.10;;;;;;5049701;28;20630;-70
2023/06/18 12:30:53;;;;;;;2.10;1.07;;;37.10;56.60;;;;;;5045709;28;20639;-70
2023/06/18 12:33:21;;;;;;;1.40;1.30;;;37.50;54.20;;;;;;5031283;28;20638;-70
2023/06/18 12:35:54;;;;;;;0.93;0.93;;;37.80;54.10;;;;;;5052458;28;20753;-71
2023/06/18 12:38:22;;;;;;;1.20;1.10;;;37.90;53.20;;;;;;5051408;28;21544;-69
2023/06/18 12:40:53;;;;;;;1.43;0.90;;;38.10;54.60;;;;;;5047213;28;21385;-69
2023/06/18 12:43:22;;;;;;;1.10;1.00;;;38.40;53.60;;;;;;5063456;28;22548;-69
2023/06/18 12:45:52;;;;;;;1.57;1.23;;;38.10;53.30;;;;;;5066946;28;20678;-70
2023/06/18 12:48:24;;;;;;;1.10;1.00;;;37.90;53.70;;;;;;5071173;28;20639;-69
2023/06/18 12:50:53;;;;;;;0.93;0.83;;;37.80;52.40;;;;;;5068441;28;20633;-70
2023/06/18 12:53:24;;;;;;;1.23;1.13;;;38.10;54.00;;;;;;5071382;28;20721;-70
2023/06/18 12:55:54;;;;;;;1.23;1.10;;;38.40;52.80;;;;;;5070485;28;20671;-70
2023/06/18 12:58:24;;;;;;;1.57;1.20;;;38.50;52.80;;;;;;5071129;28;20627;-69